sensor_id;sensor_type;location;lat;lon;timestamp;pressure;altitude;pressure_sealevel;temperature;humidity
51289;BME280;37372;52.294;5.152;2024-02-14T00:01:23;101267.13;;;6.74;89.08
51289;BME280;37372;52.294;5.152;2024-02-14T00:03:49;101258.53;;;6.78;88.55
51289;BME280;37372;52.294;5.152;2024-02-14T00:06:14;101261.19;;;6.80;88.79
51289;BME280;37372;52.294;5.152;2024-02-14T00:08:39;101263.88;;;6.83;89.06
51289;BME280;37372;52.294;5.152;2024-02-14T00:11:05;101252.47;;;6.79;89.12
51289;BME280;37372;52.294;5.152;2024-02-14T00:13:31;101254.16;;;6.77;89.08
51289;BME280;37372;52.294;5.152;2024-02-14T00:16:00;101250.78;;;6.81;89.31
51289;BME280;37372;52.294;5.152;2024-02-14T00:18:26;101251.84;;;6.90;88.83
51289;BME280;37372;52.294;5.152;2024-02-14T00:20:52;101247.31;;;6.81;89.38
51289;BME280;37372;52.294;5.152;2024-02-14T00:23:18;101254.13;;;6.76;89.33
51289;BME280;37372;52.294;5.152;2024-02-14T00:25:44;101256.03;;;6.83;89.21
51289;BME280;37372;52.294;5.152;2024-02-14T00:28:09;101250.00;;;6.86;89.22
51289;BME280;37372;52.294;5.152;2024-02-14T00:30:34;101244.81;;;6.87;89.62
51289;BME280;37372;52.294;5.152;2024-02-14T00:33:00;101228.50;;;6.96;89.43
51289;BME280;37372;52.294;5.152;2024-02-14T00:35:26;101238.97;;;6.96;89.31
51289;BME280;37372;52.294;5.152;2024-02-14T00:37:52;101236.38;;;6.97;89.27
51289;BME280;37372;52.294;5.152;2024-02-14T00:40:17;101220.88;;;7.04;89.56
51289;BME280;37372;52.294;5.152;2024-02-14T00:42:43;101226.28;;;7.11;88.93
51289;BME280;37372;52.294;5.152;2024-02-14T00:45:10;101230.50;;;7.06;89.22
51289;BME280;37372;52.294;5.152;2024-02-14T00:47:38;101224.28;;;7.01;89.36
51289;BME280;37372;52.294;5.152;2024-02-14T00:50:04;101214.84;;;7.06;90.06
51289;BME280;37372;52.294;5.152;2024-02-14T00:52:33;101221.94;;;7.12;89.77
51289;BME280;37372;52.294;5.152;2024-02-14T00:54:59;101219.53;;;7.21;89.44
51289;BME280;37372;52.294;5.152;2024-02-14T00:57:29;101230.81;;;7.20;89.84
51289;BME280;37372;52.294;5.152;2024-02-14T00:59:54;101223.88;;;7.21;89.54
51289;BME280;37372;52.294;5.152;2024-02-14T01:02:24;101223.09;;;7.25;89.79
51289;BME280;37372;52.294;5.152;2024-02-14T01:04:51;101225.78;;;7.28;89.77
51289;BME280;37372;52.294;5.152;2024-02-14T01:07:16;101223.22;;;7.31;89.86
51289;BME280;37372;52.294;5.152;2024-02-14T01:09:42;101215.53;;;7.37;89.96
51289;BME280;37372;52.294;5.152;2024-02-14T01:12:08;101216.47;;;7.39;89.77
51289;BME280;37372;52.294;5.152;2024-02-14T01:14:34;101217.38;;;7.43;89.48
51289;BME280;37372;52.294;5.152;2024-02-14T01:17:00;101221.69;;;7.39;89.98
51289;BME280;37372;52.294;5.152;2024-02-14T01:19:26;101211.50;;;7.52;89.61
51289;BME280;37372;52.294;5.152;2024-02-14T01:21:55;101217.53;;;7.49;89.74
51289;BME280;37372;52.294;5.152;2024-02-14T01:24:22;101217.66;;;7.54;89.57
51289;BME280;37372;52.294;5.152;2024-02-14T01:26:48;101222.75;;;7.49;89.87
51289;BME280;37372;52.294;5.152;2024-02-14T01:29:13;101214.09;;;7.52;89.74
51289;BME280;37372;52.294;5.152;2024-02-14T01:31:39;101225.28;;;7.44;90.22
51289;BME280;37372;52.294;5.152;2024-02-14T01:34:08;101219.31;;;7.50;90.46
51289;BME280;37372;52.294;5.152;2024-02-14T01:36:34;101222.00;;;7.55;89.98
51289;BME280;37372;52.294;5.152;2024-02-14T01:38:59;101225.44;;;7.52;90.46
51289;BME280;37372;52.294;5.152;2024-02-14T01:41:25;101224.56;;;7.52;90.68
51289;BME280;37372;52.294;5.152;2024-02-14T01:43:52;101223.94;;;7.63;90.08
51289;BME280;37372;52.294;5.152;2024-02-14T01:46:19;101217.78;;;7.61;90.29
51289;BME280;37372;52.294;5.152;2024-02-14T01:48:44;101223.97;;;7.65;90.30
51289;BME280;37372;52.294;5.152;2024-02-14T01:51:12;101222.31;;;7.69;90.16
51289;BME280;37372;52.294;5.152;2024-02-14T01:53:42;101226.50;;;7.60;89.99
51289;BME280;37372;52.294;5.152;2024-02-14T01:56:08;101226.59;;;7.66;90.12
51289;BME280;37372;52.294;5.152;2024-02-14T01:58:41;101228.34;;;7.66;90.43
51289;BME280;37372;52.294;5.152;2024-02-14T02:01:06;101224.91;;;7.67;90.78
51289;BME280;37372;52.294;5.152;2024-02-14T02:03:32;101238.97;;;7.74;90.32
51289;BME280;37372;52.294;5.152;2024-02-14T02:06:00;101228.50;;;7.72;90.06
51289;BME280;37372;52.294;5.152;2024-02-14T02:08:26;101235.44;;;7.72;90.14
51289;BME280;37372;52.294;5.152;2024-02-14T02:10:51;101221.63;;;7.77;90.43
51289;BME280;37372;52.294;5.152;2024-02-14T02:13:17;101234.69;;;7.77;90.32
51289;BME280;37372;52.294;5.152;2024-02-14T02:15:43;101230.41;;;7.81;90.27
51289;BME280;37372;52.294;5.152;2024-02-14T02:18:12;101235.63;;;7.81;90.32
51289;BME280;37372;52.294;5.152;2024-02-14T02:20:38;101240.84;;;7.81;90.57
51289;BME280;37372;52.294;5.152;2024-02-14T02:23:04;101234.69;;;7.77;90.67
51289;BME280;37372;52.294;5.152;2024-02-14T02:25:30;101229.47;;;7.77;90.74
51289;BME280;37372;52.294;5.152;2024-02-14T02:27:56;101233.09;;;7.84;90.93
51289;BME280;37372;52.294;5.152;2024-02-14T02:30:22;101241.63;;;7.75;91.13
51289;BME280;37372;52.294;5.152;2024-02-14T02:32:48;101237.59;;;7.93;90.34
51289;BME280;37372;52.294;5.152;2024-02-14T02:35:14;101236.63;;;7.88;90.35
51289;BME280;37372;52.294;5.152;2024-02-14T02:37:39;101245.34;;;7.87;90.41
51289;BME280;37372;52.294;5.152;2024-02-14T02:40:05;101239.31;;;7.89;90.18
51289;BME280;37372;52.294;5.152;2024-02-14T02:42:30;101238.25;;;7.82;90.20
51289;BME280;37372;52.294;5.152;2024-02-14T02:44:57;101244.41;;;7.83;90.42
51289;BME280;37372;52.294;5.152;2024-02-14T02:47:22;101240.13;;;7.87;90.73
51289;BME280;37372;52.294;5.152;2024-02-14T02:49:47;101246.09;;;7.82;90.69
51289;BME280;37372;52.294;5.152;2024-02-14T02:52:13;101246.28;;;7.90;90.53
51289;BME280;37372;52.294;5.152;2024-02-14T02:54:40;101250.63;;;7.90;90.30
51289;BME280;37372;52.294;5.152;2024-02-14T02:57:07;101248.66;;;7.79;90.42
51289;BME280;37372;52.294;5.152;2024-02-14T02:59:35;101248.84;;;7.89;90.26
51289;BME280;37372;52.294;5.152;2024-02-14T03:02:00;101247.81;;;7.79;91.05
51289;BME280;37372;52.294;5.152;2024-02-14T03:04:27;101242.84;;;7.93;90.62
51289;BME280;37372;52.294;5.152;2024-02-14T03:06:53;101254.09;;;7.89;90.61
51289;BME280;37372;52.294;5.152;2024-02-14T03:09:19;101256.66;;;7.86;90.51
51289;BME280;37372;52.294;5.152;2024-02-14T03:11:47;101249.59;;;7.81;90.60
51289;BME280;37372;52.294;5.152;2024-02-14T03:14:13;101250.56;;;7.87;91.01
51289;BME280;37372;52.294;5.152;2024-02-14T03:16:39;101259.34;;;7.90;91.12
51289;BME280;37372;52.294;5.152;2024-02-14T03:19:04;101252.41;;;7.91;90.55
51289;BME280;37372;52.294;5.152;2024-02-14T03:21:31;101252.25;;;7.85;91.18
51289;BME280;37372;52.294;5.152;2024-02-14T03:24:01;101249.75;;;7.89;90.98
51289;BME280;37372;52.294;5.152;2024-02-14T03:26:28;101255.13;;;7.97;91.04
51289;BME280;37372;52.294;5.152;2024-02-14T03:28:54;101259.50;;;7.98;90.70
51289;BME280;37372;52.294;5.152;2024-02-14T03:31:20;101263.91;;;8.00;90.96
51289;BME280;37372;52.294;5.152;2024-02-14T03:33:46;101260.31;;;7.94;91.13
51289;BME280;37372;52.294;5.152;2024-02-14T03:36:11;101255.19;;;7.98;91.45
51289;BME280;37372;52.294;5.152;2024-02-14T03:38:37;101258.81;;;8.05;91.07
51289;BME280;37372;52.294;5.152;2024-02-14T03:41:06;101260.53;;;8.06;90.90
51289;BME280;37372;52.294;5.152;2024-02-14T03:43:32;101259.81;;;8.13;90.83
51289;BME280;37372;52.294;5.152;2024-02-14T03:45:58;101262.28;;;8.06;91.11
51289;BME280;37372;52.294;5.152;2024-02-14T03:48:24;101272.88;;;8.12;91.13
51289;BME280;37372;52.294;5.152;2024-02-14T03:50:49;101263.25;;;8.09;91.24
51289;BME280;37372;52.294;5.152;2024-02-14T03:53:15;101269.44;;;8.14;91.31
51289;BME280;37372;52.294;5.152;2024-02-14T03:55:41;101260.00;;;8.23;90.84
51289;BME280;37372;52.294;5.152;2024-02-14T03:58:06;101266.09;;;8.22;91.28
51289;BME280;37372;52.294;5.152;2024-02-14T04:00:34;101273.94;;;8.22;91.41
51289;BME280;37372;52.294;5.152;2024-02-14T04:03:01;101275.75;;;8.26;91.05
51289;BME280;37372;52.294;5.152;2024-02-14T04:05:28;101277.47;;;8.24;91.69
51289;BME280;37372;52.294;5.152;2024-02-14T04:07:54;101276.56;;;8.23;91.41
51289;BME280;37372;52.294;5.152;2024-02-14T04:10:21;101281.13;;;8.32;91.58
51289;BME280;37372;52.294;5.152;2024-02-14T04:12:47;101282.88;;;8.31;91.41
51289;BME280;37372;52.294;5.152;2024-02-14T04:15:12;101288.22;;;8.39;91.37
51289;BME280;37372;52.294;5.152;2024-02-14T04:17:39;101296.13;;;8.41;91.07
51289;BME280;37372;52.294;5.152;2024-02-14T04:20:07;101298.69;;;8.39;91.44
51289;BME280;37372;52.294;5.152;2024-02-14T04:22:33;101289.97;;;8.39;91.34
51289;BME280;37372;52.294;5.152;2024-02-14T04:24:58;101283.97;;;8.44;91.44
51289;BME280;37372;52.294;5.152;2024-02-14T04:27:24;101297.78;;;8.37;91.42
51289;BME280;37372;52.294;5.152;2024-02-14T04:29:49;101292.63;;;8.42;91.51
51289;BME280;37372;52.294;5.152;2024-02-14T04:32:15;101295.34;;;8.45;91.48
51289;BME280;37372;52.294;5.152;2024-02-14T04:34:40;101307.59;;;8.46;91.23
51289;BME280;37372;52.294;5.152;2024-02-14T04:37:07;101309.56;;;8.58;91.38
51289;BME280;37372;52.294;5.152;2024-02-14T04:39:38;101311.94;;;8.45;91.33
51289;BME280;37372;52.294;5.152;2024-02-14T04:42:04;101314.56;;;8.47;91.41
51289;BME280;37372;52.294;5.152;2024-02-14T04:44:31;101313.03;;;8.57;91.59
51289;BME280;37372;52.294;5.152;2024-02-14T04:46:57;101317.28;;;8.50;91.10
51289;BME280;37372;52.294;5.152;2024-02-14T04:49:27;101312.97;;;8.54;91.17
51289;BME280;37372;52.294;5.152;2024-02-14T04:51:55;101310.28;;;8.51;91.72
51289;BME280;37372;52.294;5.152;2024-02-14T04:54:20;101320.09;;;8.61;91.33
51289;BME280;37372;52.294;5.152;2024-02-14T04:56:46;101308.78;;;8.63;91.60
51289;BME280;37372;52.294;5.152;2024-02-14T04:59:12;101307.97;;;8.66;91.29
51289;BME280;37372;52.294;5.152;2024-02-14T05:01:37;101322.66;;;8.58;91.25
51289;BME280;37372;52.294;5.152;2024-02-14T05:04:04;101323.69;;;8.68;91.27
51289;BME280;37372;52.294;5.152;2024-02-14T05:06:30;101336.16;;;8.81;90.79
51289;BME280;37372;52.294;5.152;2024-02-14T05:08:55;101335.19;;;8.76;91.08
51289;BME280;37372;52.294;5.152;2024-02-14T05:11:21;101332.50;;;8.71;91.13
51289;BME280;37372;52.294;5.152;2024-02-14T05:13:47;101345.84;;;8.85;91.24
51289;BME280;37372;52.294;5.152;2024-02-14T05:16:20;101336.03;;;8.75;91.12
51289;BME280;37372;52.294;5.152;2024-02-14T05:18:46;101335.13;;;8.71;91.05
51289;BME280;37372;52.294;5.152;2024-02-14T05:21:12;101340.44;;;8.76;91.31
51289;BME280;37372;52.294;5.152;2024-02-14T05:23:38;101350.84;;;8.71;91.07
51289;BME280;37372;52.294;5.152;2024-02-14T05:26:04;101348.25;;;8.74;91.09
51289;BME280;37372;52.294;5.152;2024-02-14T05:28:30;101355.25;;;8.74;90.95
51289;BME280;37372;52.294;5.152;2024-02-14T05:30:56;101351.69;;;8.72;91.48
51289;BME280;37372;52.294;5.152;2024-02-14T05:33:22;101344.78;;;8.74;91.63
51289;BME280;37372;52.294;5.152;2024-02-14T05:35:49;101354.31;;;8.72;91.85
51289;BME280;37372;52.294;5.152;2024-02-14T05:38:16;101349.22;;;8.79;91.76
51289;BME280;37372;52.294;5.152;2024-02-14T05:40:41;101355.16;;;8.69;91.76
51289;BME280;37372;52.294;5.152;2024-02-14T05:43:09;101355.09;;;8.66;91.97
51289;BME280;37372;52.294;5.152;2024-02-14T05:45:35;101361.34;;;8.73;92.01
51289;BME280;37372;52.294;5.152;2024-02-14T05:48:00;101362.09;;;8.67;91.88
51289;BME280;37372;52.294;5.152;2024-02-14T05:50:26;101351.50;;;8.61;92.06
51289;BME280;37372;52.294;5.152;2024-02-14T05:52:51;101360.47;;;8.74;91.77
51289;BME280;37372;52.294;5.152;2024-02-14T05:55:17;101355.09;;;8.66;91.87
51289;BME280;37372;52.294;5.152;2024-02-14T05:57:43;101363.88;;;8.70;92.20
51289;BME280;37372;52.294;5.152;2024-02-14T06:00:09;101364.94;;;8.79;92.14
51289;BME280;37372;52.294;5.152;2024-02-14T06:02:35;101364.66;;;8.65;91.91
51289;BME280;37372;52.294;5.152;2024-02-14T06:05:01;101368.44;;;8.80;91.66
51289;BME280;37372;52.294;5.152;2024-02-14T06:07:29;101372.69;;;8.73;91.58
51289;BME280;37372;52.294;5.152;2024-02-14T06:09:55;101373.56;;;8.74;91.92
51289;BME280;37372;52.294;5.152;2024-02-14T06:12:20;101376.09;;;8.69;91.67
51289;BME280;37372;52.294;5.152;2024-02-14T06:14:49;101381.47;;;8.75;91.93
51289;BME280;37372;52.294;5.152;2024-02-14T06:17:14;101387.50;;;8.71;91.71
51289;BME280;37372;52.294;5.152;2024-02-14T06:19:40;101386.75;;;8.78;91.71
51289;BME280;37372;52.294;5.152;2024-02-14T06:22:07;101381.44;;;8.74;92.04
51289;BME280;37372;52.294;5.152;2024-02-14T06:24:32;101389.28;;;8.74;91.88
51289;BME280;37372;52.294;5.152;2024-02-14T06:26:57;101386.69;;;8.75;91.76
51289;BME280;37372;52.294;5.152;2024-02-14T06:29:23;101392.09;;;8.85;91.72
51289;BME280;37372;52.294;5.152;2024-02-14T06:31:49;101399.13;;;8.86;91.89
51289;BME280;37372;52.294;5.152;2024-02-14T06:34:15;101405.19;;;8.83;91.95
51289;BME280;37372;52.294;5.152;2024-02-14T06:36:41;101399.03;;;8.82;91.95
51289;BME280;37372;52.294;5.152;2024-02-14T06:39:07;101396.34;;;8.78;92.27
51289;BME280;37372;52.294;5.152;2024-02-14T06:41:34;101405.00;;;8.74;92.32
51289;BME280;37372;52.294;5.152;2024-02-14T06:43:59;101408.72;;;8.87;92.35
51289;BME280;37372;52.294;5.152;2024-02-14T06:46:25;101414.88;;;8.89;92.51
51289;BME280;37372;52.294;5.152;2024-02-14T06:48:50;101411.34;;;8.87;92.40
51289;BME280;37372;52.294;5.152;2024-02-14T06:51:16;101412.44;;;8.98;92.39
51289;BME280;37372;52.294;5.152;2024-02-14T06:53:41;101412.41;;;8.96;92.33
51289;BME280;37372;52.294;5.152;2024-02-14T06:56:07;101417.81;;;9.04;91.79
51289;BME280;37372;52.294;5.152;2024-02-14T06:58:32;101418.66;;;9.05;92.00
51289;BME280;37372;52.294;5.152;2024-02-14T07:00:57;101416.00;;;9.02;91.95
51289;BME280;37372;52.294;5.152;2024-02-14T07:03:23;101417.91;;;9.10;92.12
51289;BME280;37372;52.294;5.152;2024-02-14T07:05:48;101416.06;;;9.06;91.47
51289;BME280;37372;52.294;5.152;2024-02-14T07:08:14;101424.66;;;8.97;91.65
51289;BME280;37372;52.294;5.152;2024-02-14T07:10:40;101423.72;;;8.94;91.82
51289;BME280;37372;52.294;5.152;2024-02-14T07:13:06;101429.16;;;9.06;91.67
51289;BME280;37372;52.294;5.152;2024-02-14T07:15:31;101427.34;;;9.02;91.94
51289;BME280;37372;52.294;5.152;2024-02-14T07:17:56;101435.31;;;9.07;91.69
51289;BME280;37372;52.294;5.152;2024-02-14T07:20:23;101439.69;;;9.08;91.82
51289;BME280;37372;52.294;5.152;2024-02-14T07:22:51;101437.00;;;9.05;91.66
51289;BME280;37372;52.294;5.152;2024-02-14T07:25:19;101439.56;;;9.00;91.54
51289;BME280;37372;52.294;5.152;2024-02-14T07:27:45;101440.50;;;9.05;91.96
51289;BME280;37372;52.294;5.152;2024-02-14T07:30:11;101442.34;;;9.09;91.86
51289;BME280;37372;52.294;5.152;2024-02-14T07:32:37;101438.63;;;8.98;92.04
51289;BME280;37372;52.294;5.152;2024-02-14T07:35:04;101448.28;;;9.01;91.83
51289;BME280;37372;52.294;5.152;2024-02-14T07:37:33;101446.53;;;9.01;91.46
51289;BME280;37372;52.294;5.152;2024-02-14T07:39:59;101450.84;;;8.97;92.16
51289;BME280;37372;52.294;5.152;2024-02-14T07:42:25;101447.44;;;9.02;91.67
51289;BME280;37372;52.294;5.152;2024-02-14T07:44:51;101447.31;;;8.95;92.37
51289;BME280;37372;52.294;5.152;2024-02-14T07:47:16;101447.44;;;9.02;92.05
51289;BME280;37372;52.294;5.152;2024-02-14T07:49:42;101451.09;;;9.10;91.54
51289;BME280;37372;52.294;5.152;2024-02-14T07:52:07;101445.72;;;9.04;91.70
51289;BME280;37372;52.294;5.152;2024-02-14T07:54:32;101450.84;;;8.97;91.79
51289;BME280;37372;52.294;5.152;2024-02-14T07:56:58;101456.34;;;9.11;91.41
51289;BME280;37372;52.294;5.152;2024-02-14T07:59:24;101454.53;;;9.09;91.51
51289;BME280;37372;52.294;5.152;2024-02-14T08:01:49;101462.25;;;9.01;91.64
51289;BME280;37372;52.294;5.152;2024-02-14T08:04:21;101467.41;;;8.95;92.16
51289;BME280;37372;52.294;5.152;2024-02-14T08:06:48;101462.34;;;9.06;91.61
51289;BME280;37372;52.294;5.152;2024-02-14T08:09:17;101465.09;;;9.12;91.76
51289;BME280;37372;52.294;5.152;2024-02-14T08:11:43;101462.28;;;9.03;91.95
51289;BME280;37372;52.294;5.152;2024-02-14T08:14:08;101472.00;;;9.07;91.71
51289;BME280;37372;52.294;5.152;2024-02-14T08:16:36;101464.91;;;9.03;91.68
51289;BME280;37372;52.294;5.152;2024-02-14T08:19:05;101471.22;;;9.12;91.86
51289;BME280;37372;52.294;5.152;2024-02-14T08:21:35;101476.22;;;9.00;91.84
51289;BME280;37372;52.294;5.152;2024-02-14T08:24:01;101472.88;;;9.09;91.88
51289;BME280;37372;52.294;5.152;2024-02-14T08:26:26;101480.06;;;9.18;91.94
51289;BME280;37372;52.294;5.152;2024-02-14T08:28:52;101476.50;;;9.15;91.43
51289;BME280;37372;52.294;5.152;2024-02-14T08:31:19;101478.31;;;9.18;91.67
51289;BME280;37372;52.294;5.152;2024-02-14T08:33:45;101472.03;;;9.10;91.69
51289;BME280;37372;52.294;5.152;2024-02-14T08:36:10;101474.94;;;9.24;91.98
51289;BME280;37372;52.294;5.152;2024-02-14T08:38:36;101476.66;;;9.23;91.61
51289;BME280;37372;52.294;5.152;2024-02-14T08:41:02;101480.94;;;9.18;91.81
51289;BME280;37372;52.294;5.152;2024-02-14T08:43:28;101484.38;;;9.17;92.12
51289;BME280;37372;52.294;5.152;2024-02-14T08:45:54;101483.81;;;9.30;91.83
51289;BME280;37372;52.294;5.152;2024-02-14T08:48:21;101480.41;;;9.36;91.36
51289;BME280;37372;52.294;5.152;2024-02-14T08:50:46;101482.03;;;9.29;91.83
51289;BME280;37372;52.294;5.152;2024-02-14T08:53:12;101481.91;;;9.25;91.79
51289;BME280;37372;52.294;5.152;2024-02-14T08:55:39;101483.69;;;9.26;91.96
51289;BME280;37372;52.294;5.152;2024-02-14T08:58:05;101482.16;;;9.37;91.49
51289;BME280;37372;52.294;5.152;2024-02-14T09:00:31;101490.88;;;9.36;91.13
51289;BME280;37372;52.294;5.152;2024-02-14T09:02:56;101485.41;;;9.24;91.34
51289;BME280;37372;52.294;5.152;2024-02-14T09:05:22;101491.53;;;9.24;91.59
51289;BME280;37372;52.294;5.152;2024-02-14T09:07:48;101494.41;;;9.38;91.72
51289;BME280;37372;52.294;5.152;2024-02-14T09:10:13;101493.41;;;9.31;91.17
51289;BME280;37372;52.294;5.152;2024-02-14T09:12:39;101507.44;;;9.33;91.65
51289;BME280;37372;52.294;5.152;2024-02-14T09:15:07;101507.47;;;9.35;91.17
51289;BME280;37372;52.294;5.152;2024-02-14T09:17:33;101511.69;;;9.27;91.48
51289;BME280;37372;52.294;5.152;2024-02-14T09:19:58;101511.69;;;9.27;91.70
51289;BME280;37372;52.294;5.152;2024-02-14T09:22:24;101513.50;;;9.31;91.71
51289;BME280;37372;52.294;5.152;2024-02-14T09:24:50;101509.22;;;9.35;91.03
51289;BME280;37372;52.294;5.152;2024-02-14T09:27:15;101517.94;;;9.35;91.41
51289;BME280;37372;52.294;5.152;2024-02-14T09:29:41;101513.63;;;9.37;91.22
51289;BME280;37372;52.294;5.152;2024-02-14T09:32:07;101511.97;;;9.42;91.09
51289;BME280;37372;52.294;5.152;2024-02-14T09:34:34;101514.53;;;9.41;91.09
51289;BME280;37372;52.294;5.152;2024-02-14T09:37:00;101506.00;;;9.51;90.99
51289;BME280;37372;52.294;5.152;2024-02-14T09:39:29;101507.75;;;9.51;90.78
51289;BME280;37372;52.294;5.152;2024-02-14T09:41:58;101508.59;;;9.49;90.84
51289;BME280;37372;52.294;5.152;2024-02-14T09:44:28;101508.59;;;9.49;90.63
51289;BME280;37372;52.294;5.152;2024-02-14T09:46:55;101502.88;;;9.72;90.60
51289;BME280;37372;52.294;5.152;2024-02-14T09:49:22;101514.16;;;9.66;90.67
51289;BME280;37372;52.294;5.152;2024-02-14T09:51:48;101519.41;;;9.68;90.41
51289;BME280;37372;52.294;5.152;2024-02-14T09:54:17;101520.19;;;9.61;90.88
51289;BME280;37372;52.294;5.152;2024-02-14T09:56:49;101520.34;;;9.70;90.37
51289;BME280;37372;52.294;5.152;2024-02-14T09:59:16;101516.13;;;9.80;90.21
51289;BME280;37372;52.294;5.152;2024-02-14T10:01:43;101519.63;;;9.80;90.29
51289;BME280;37372;52.294;5.152;2024-02-14T10:04:09;101523.94;;;9.75;90.25
51289;BME280;37372;52.294;5.152;2024-02-14T10:06:35;101525.75;;;9.79;90.11
51289;BME280;37372;52.294;5.152;2024-02-14T10:09:02;101517.66;;;9.69;90.28
51289;BME280;37372;52.294;5.152;2024-02-14T10:11:27;101516.78;;;9.68;90.48
51289;BME280;37372;52.294;5.152;2024-02-14T10:13:53;101524.00;;;9.81;90.31
51289;BME280;37372;52.294;5.152;2024-02-14T10:16:22;101521.34;;;9.78;90.10
51289;BME280;37372;52.294;5.152;2024-02-14T10:18:48;101527.38;;;9.73;90.67
51289;BME280;37372;52.294;5.152;2024-02-14T10:21:16;101528.25;;;9.73;90.30
51289;BME280;37372;52.294;5.152;2024-02-14T10:23:45;101522.22;;;9.79;90.44
51289;BME280;37372;52.294;5.152;2024-02-14T10:26:13;101532.97;;;9.94;90.13
51289;BME280;37372;52.294;5.152;2024-02-14T10:28:43;101529.59;;;10.02;89.45
51289;BME280;37372;52.294;5.152;2024-02-14T10:31:20;101536.63;;;10.03;89.39
51289;BME280;37372;52.294;5.152;2024-02-14T10:33:47;101532.16;;;9.97;90.13
51289;BME280;37372;52.294;5.152;2024-02-14T10:36:13;101538.41;;;10.05;89.78
51289;BME280;37372;52.294;5.152;2024-02-14T10:38:39;101536.56;;;9.98;90.02
51289;BME280;37372;52.294;5.152;2024-02-14T10:41:05;101542.66;;;9.97;89.75
51289;BME280;37372;52.294;5.152;2024-02-14T10:43:32;101547.84;;;9.94;89.75
51289;BME280;37372;52.294;5.152;2024-02-14T10:46:06;101537.25;;;9.88;89.73
51289;BME280;37372;52.294;5.152;2024-02-14T10:48:40;101538.13;;;9.88;90.30
51289;BME280;37372;52.294;5.152;2024-02-14T10:51:12;101533.84;;;9.95;90.18
51289;BME280;37372;52.294;5.152;2024-02-14T10:53:40;101536.56;;;9.98;89.69
51289;BME280;37372;52.294;5.152;2024-02-14T10:56:10;101539.09;;;9.95;89.51
51289;BME280;37372;52.294;5.152;2024-02-14T10:58:39;101539.06;;;9.92;90.12
51289;BME280;37372;52.294;5.152;2024-02-14T11:01:06;101540.00;;;9.95;89.94
51289;BME280;37372;52.294;5.152;2024-02-14T11:03:33;101541.03;;;10.05;90.05
51289;BME280;37372;52.294;5.152;2024-02-14T11:06:01;101538.38;;;10.04;90.06
51289;BME280;37372;52.294;5.152;2024-02-14T11:08:29;101538.56;;;10.16;89.69
51289;BME280;37372;52.294;5.152;2024-02-14T11:11:00;101543.09;;;10.25;89.24
51289;BME280;37372;52.294;5.152;2024-02-14T11:13:28;101538.00;;;10.34;89.22
51289;BME280;37372;52.294;5.152;2024-02-14T11:16:00;101524.16;;;10.41;88.84
51289;BME280;37372;52.294;5.152;2024-02-14T11:18:27;101528.28;;;10.27;89.30
51289;BME280;37372;52.294;5.152;2024-02-14T11:20:55;101531.09;;;10.38;89.28
51289;BME280;37372;52.294;5.152;2024-02-14T11:23:23;101529.22;;;10.32;89.53
51289;BME280;37372;52.294;5.152;2024-02-14T11:25:51;101524.16;;;10.41;88.62
51289;BME280;37372;52.294;5.152;2024-02-14T11:28:24;101518.91;;;10.41;88.94
51289;BME280;37372;52.294;5.152;2024-02-14T11:30:52;101522.25;;;10.34;89.12
51289;BME280;37372;52.294;5.152;2024-02-14T11:33:23;101522.38;;;10.40;88.69
51289;BME280;37372;52.294;5.152;2024-02-14T11:35:53;101520.41;;;10.27;89.18
51289;BME280;37372;52.294;5.152;2024-02-14T11:38:22;101524.75;;;10.26;89.37
51289;BME280;37372;52.294;5.152;2024-02-14T11:40:55;101519.34;;;10.15;89.94
51289;BME280;37372;52.294;5.152;2024-02-14T11:43:23;101517.69;;;10.22;89.77
51289;BME280;37372;52.294;5.152;2024-02-14T11:45:52;101520.31;;;10.22;89.78
51289;BME280;37372;52.294;5.152;2024-02-14T11:48:19;101522.88;;;10.18;90.01
51289;BME280;37372;52.294;5.152;2024-02-14T11:50:46;101520.28;;;10.19;90.28
51289;BME280;37372;52.294;5.152;2024-02-14T11:53:15;101517.66;;;10.21;90.14
51289;BME280;37372;52.294;5.152;2024-02-14T11:55:44;101514.22;;;10.25;89.74
51289;BME280;37372;52.294;5.152;2024-02-14T11:58:14;101516.03;;;10.29;89.70
51289;BME280;37372;52.294;5.152;2024-02-14T12:00:44;101517.78;;;10.27;89.67
51289;BME280;37372;52.294;5.152;2024-02-14T12:03:19;101509.06;;;10.29;89.97
51289;BME280;37372;52.294;5.152;2024-02-14T12:05:46;101520.31;;;10.22;90.26
51289;BME280;37372;52.294;5.152;2024-02-14T12:08:13;101514.25;;;10.28;90.05
51289;BME280;37372;52.294;5.152;2024-02-14T12:10:41;101502.91;;;10.27;90.21
51289;BME280;37372;52.294;5.152;2024-02-14T12:13:11;101514.25;;;10.26;90.24
51289;BME280;37372;52.294;5.152;2024-02-14T12:15:42;101516.88;;;10.28;90.75
51289;BME280;37372;52.294;5.152;2024-02-14T12:18:09;101513.47;;;10.32;90.68
51289;BME280;37372;52.294;5.152;2024-02-14T12:20:35;101514.34;;;10.31;90.55
51289;BME280;37372;52.294;5.152;2024-02-14T12:23:02;101509.09;;;10.31;90.70
51289;BME280;37372;52.294;5.152;2024-02-14T12:25:29;101501.19;;;10.31;90.65
51289;BME280;37372;52.294;5.152;2024-02-14T12:27:59;101501.41;;;10.43;90.32
51289;BME280;37372;52.294;5.152;2024-02-14T12:30:47;101496.25;;;10.48;90.16
51289;BME280;37372;52.294;5.152;2024-02-14T12:33:15;101499.81;;;10.55;89.50
51289;BME280;37372;52.294;5.152;2024-02-14T12:35:45;101498.91;;;10.53;89.37
51289;BME280;37372;52.294;5.152;2024-02-14T12:38:16;101494.34;;;10.39;89.63
51289;BME280;37372;52.294;5.152;2024-02-14T12:40:43;101505.78;;;10.41;90.25
51289;BME280;37372;52.294;5.152;2024-02-14T12:43:13;101497.81;;;10.38;89.88
51289;BME280;37372;52.294;5.152;2024-02-14T12:45:40;101500.53;;;10.43;89.62
51289;BME280;37372;52.294;5.152;2024-02-14T12:48:10;101500.59;;;10.49;89.44
51289;BME280;37372;52.294;5.152;2024-02-14T12:51:06;101503.03;;;10.35;89.93
51289;BME280;37372;52.294;5.152;2024-02-14T12:53:32;101504.88;;;10.42;90.10
51289;BME280;37372;52.294;5.152;2024-02-14T12:55:58;101492.72;;;10.47;89.79